»·PEaware :: N6594J KAMA-KAMA

N6594J :: KAMA-KAMA

FLIGHT INFORMATION

Flight Status: Arrived
Operator: Privately registered:
United States
More flights under this callsign
Pilot: Hub City Aviation Academy (12996)
Aircraft: PIPER PA-28 CHEROKEE ARCHER
(P28A)
More flights by this aircraft type
Origin: KAMA Amarillo Intl
United States
Destination: KAMA Amarillo Intl
United States
More flights between these airports :: More routes between these airports
Route: ++AMA
File this flight plan on PilotEdge
Remarks: RY13
Altitude:
(Current/Filed)
0ft
Speed:
(Current/Filed)
0kts
Departed: 24-Jul-17 12:15 PM
Arrived: 24-Jul-17 01:12 PM
Distance/Time
Traveled:
0nm/0:57
Distance/Time
To Go:
Arrived

Flight Plot

Page will automatically refresh every two minutes.

Flight plan parsing failed; only flown route is shown


Map Options




Map Legend


Flown Route
Filed Route
Departure Airport
Arrival Airport
Navaid (VOR, NDB)
Fix

Horizontal Profiles

Position Reports

Time Latitude Longitude Heading Altitude Ground
Speed
24-Jul-17 12:13 35.232039 -101.702376 83 3610ft 0kts
24-Jul-17 12:14 35.232039 -101.702375 83 3610ft 0kts
24-Jul-17 12:15 35.232039 -101.702375 83 3610ft 0kts
24-Jul-17 12:16 35.231734 -101.701556 137 3610ft 9kts
24-Jul-17 12:17 35.230633 -101.700790 198 3610ft 11kts
24-Jul-17 12:18 35.219070 -101.713934 215 4007ft 83kts
24-Jul-17 12:19 35.200032 -101.737518 223 4705ft 95kts
24-Jul-17 12:20 35.179403 -101.761500 225 5279ft 106kts
24-Jul-17 12:21 35.184156 -101.794097 298 5789ft 108kts
24-Jul-17 12:22 35.199500 -101.827722 298 6020ft 120kts
24-Jul-17 12:23 35.216168 -101.864810 298 6007ft 125kts
24-Jul-17 12:24 35.232896 -101.902374 298 6000ft 125kts
24-Jul-17 12:25 35.249594 -101.940125 298 5986ft 126kts
24-Jul-17 12:26 35.273602 -101.966310 4 6002ft 123kts
24-Jul-17 12:27 35.300361 -101.941966 59 6014ft 125kts
24-Jul-17 12:28 35.317852 -101.904483 67 5996ft 126kts
24-Jul-17 12:29 35.324673 -101.862424 79 5999ft 125kts
24-Jul-17 12:30 35.328807 -101.820037 104 5994ft 125kts
24-Jul-17 12:31 35.310244 -101.784622 134 5993ft 127kts
24-Jul-17 12:32 35.284544 -101.755407 137 5570ft 117kts
24-Jul-17 12:33 35.261864 -101.730763 138 5374ft 112kts
24-Jul-17 12:34 35.235811 -101.704460 140 4181ft 126kts
24-Jul-17 12:35 35.214069 -101.679506 138 3793ft 109kts
24-Jul-17 12:36 35.189861 -101.655862 138 4361ft 112kts
24-Jul-17 12:37 35.167360 -101.629027 133 4830ft 114kts
24-Jul-17 12:38 35.144309 -101.602430 134 5259ft 114kts
24-Jul-17 12:39 35.124540 -101.572372 111 5403ft 114kts
24-Jul-17 12:40 35.114129 -101.535356 107 5498ft 114kts
24-Jul-17 12:41 35.105788 -101.497737 101 5434ft 115kts
24-Jul-17 12:42 35.100385 -101.459235 99 5376ft 115kts
24-Jul-17 12:43 35.094541 -101.420994 98 5325ft 115kts
24-Jul-17 12:44 35.077954 -101.390895 148 5263ft 109kts
24-Jul-17 12:45 35.052458 -101.392798 264 5057ft 122kts
24-Jul-17 12:46 35.072305 -101.421472 292 5261ft 117kts
24-Jul-17 12:47 35.089540 -101.453854 302 5391ft 115kts
24-Jul-17 12:48 35.107030 -101.486161 297 5426ft 114kts
24-Jul-17 12:49 35.129125 -101.484530 83 5383ft 122kts
24-Jul-17 12:50 35.108826 -101.454810 127 5441ft 117kts
24-Jul-17 12:51 35.098679 -101.417745 106 5421ft 116kts
24-Jul-17 12:52 35.082813 -101.383552 122 5327ft 115kts
24-Jul-17 12:53 35.056887 -101.382545 243 5427ft 120kts
24-Jul-17 12:54 35.068947 -101.413987 347 5581ft 116kts
24-Jul-17 12:55 35.096250 -101.431748 298 5693ft 117kts
24-Jul-17 12:56 35.094164 -101.470307 249 5750ft 117kts
24-Jul-17 12:57 35.073553 -101.499143 208 5825ft 115kts
24-Jul-17 12:58 35.045913 -101.519432 213 5514ft 116kts
24-Jul-17 12:59 35.029936 -101.552940 251 5326ft 116kts
24-Jul-17 13:00 35.020144 -101.590364 258 5350ft 116kts
24-Jul-17 13:01 35.013788 -101.629003 259 5351ft 116kts
24-Jul-17 13:02 35.006657 -101.667284 253 5338ft 116kts
24-Jul-17 13:03 35.001103 -101.705738 269 5329ft 115kts
24-Jul-17 13:04 35.004909 -101.744568 292 5328ft 116kts
24-Jul-17 13:05 35.019350 -101.779694 290 5359ft 116kts
24-Jul-17 13:06 35.029788 -101.816773 286 5368ft 115kts
24-Jul-17 13:07 35.040082 -101.854226 293 5385ft 116kts
24-Jul-17 13:08 35.063490 -101.875847 18 5433ft 113kts
24-Jul-17 13:09 35.087965 -101.851277 37 5515ft 116kts
24-Jul-17 13:10 35.118396 -101.840429 28 5379ft 117kts
24-Jul-17 13:11 35.136329 -101.808537 36 5147ft 111kts
24-Jul-17 13:12 35.161092 -101.786500 63 4844ft 117kts
24-Jul-17 13:13 35.183066 -101.759081 54 4605ft 115kts
24-Jul-17 13:14 35.205311 -101.732631 45 3880ft 101kts
24-Jul-17 13:15 35.214667 -101.720655 46 3610ft 12kts
24-Jul-17 13:16 35.217829 -101.716160 101 3610ft 6kts
24-Jul-17 13:17 35.217245 -101.715323 137 3610ft 0kts

Navigation Log

Ident Type
Flight plan parsing failed, navigation log unavailable